createdAt,value
2023-01-03T00:02:00.510Z,6.18
2023-01-03T00:04:27.279Z,5.88
2023-01-03T00:06:54.231Z,6.30
2023-01-03T00:09:24.035Z,5.80
2023-01-03T00:12:11.898Z,5.88
2023-01-03T00:14:41.274Z,5.72
2023-01-03T00:17:08.941Z,5.57
2023-01-03T00:19:40.329Z,5.65
2023-01-03T00:22:07.943Z,4.95
2023-01-03T00:24:34.924Z,6.60
2023-01-03T00:27:01.751Z,5.72
2023-01-03T00:29:28.689Z,5.82
2023-01-03T00:31:55.424Z,5.93
2023-01-03T00:34:22.337Z,6.50
2023-01-03T00:36:49.016Z,5.53
2023-01-03T00:39:15.727Z,6.00
2023-01-03T00:41:42.579Z,5.53
2023-01-03T00:44:09.585Z,6.43
2023-01-03T00:46:36.577Z,6.07
2023-01-03T00:49:04.638Z,6.18
2023-01-03T00:51:33.253Z,5.95
2023-01-03T00:54:01.360Z,5.47
2023-01-03T00:56:31.710Z,5.72
2023-01-03T00:58:59.022Z,6.13
2023-01-03T01:01:31.202Z,5.47
2023-01-03T01:04:03.429Z,5.97
2023-01-03T01:06:33.860Z,5.68
2023-01-03T01:09:02.095Z,5.60
2023-01-03T01:11:29.936Z,5.80
2023-01-03T01:13:56.740Z,6.00
2023-01-03T01:16:33.729Z,5.35
2023-01-03T01:19:00.986Z,6.20
2023-01-03T01:21:30.051Z,5.57
2023-01-03T01:23:59.130Z,5.30
2023-01-03T01:26:26.588Z,5.90
2023-01-03T01:28:54.484Z,6.50
2023-01-03T01:31:24.861Z,5.80
2023-01-03T01:33:53.088Z,6.43
2023-01-03T01:36:22.891Z,5.80
2023-01-03T01:38:59.247Z,5.45
2023-01-03T01:41:47.460Z,5.40
2023-01-03T01:44:47.993Z,5.90
2023-01-03T01:47:35.757Z,5.25
2023-01-03T01:50:23.297Z,5.93
2023-01-03T01:52:58.781Z,6.13
2023-01-03T01:55:31.207Z,6.10
2023-01-03T01:57:58.081Z,5.82
2023-01-03T02:00:24.811Z,6.20
2023-01-03T02:02:54.084Z,6.47
2023-01-03T02:05:22.977Z,6.13
2023-01-03T02:07:51.379Z,6.25
2023-01-03T02:10:22.488Z,6.55
2023-01-03T02:13:10.088Z,6.28
2023-01-03T02:16:02.747Z,6.13
2023-01-03T02:18:32.445Z,6.55
2023-01-03T02:21:22.455Z,6.30
2023-01-03T02:24:23.376Z,5.75
2023-01-03T02:27:08.648Z,5.72
2023-01-03T02:30:12.358Z,6.43
2023-01-03T02:32:46.983Z,6.30
2023-01-03T02:35:37.951Z,7.70
2023-01-03T02:38:23.422Z,6.22
2023-01-03T02:41:00.244Z,7.07
2023-01-03T02:43:38.725Z,7.00
2023-01-03T02:46:28.475Z,7.15
2023-01-03T02:49:23.017Z,7.25
2023-01-03T02:51:56.145Z,7.85
2023-01-03T02:54:33.738Z,7.65
2023-01-03T02:57:06.218Z,7.35
2023-01-03T02:59:50.837Z,7.88
2023-01-03T03:02:19.686Z,7.43
2023-01-03T03:04:51.189Z,6.97
2023-01-03T03:07:31.154Z,8.05
2023-01-03T03:10:16.324Z,7.85
2023-01-03T03:13:05.697Z,8.40
2023-01-03T03:15:58.801Z,8.90
2023-01-03T03:18:38.576Z,8.45
2023-01-03T03:21:27.128Z,7.93
2023-01-03T03:24:14.785Z,8.93
2023-01-03T03:26:44.496Z,8.10
2023-01-03T03:29:16.598Z,8.93
2023-01-03T03:31:49.681Z,9.13
2023-01-03T03:34:23.449Z,8.70
2023-01-03T03:37:00.180Z,8.52
2023-01-03T03:39:46.870Z,7.75
2023-01-03T03:42:54.028Z,8.25
2023-01-03T03:45:26.830Z,8.88
2023-01-03T03:48:05.252Z,8.88
2023-01-03T03:50:49.692Z,9.63
2023-01-03T03:53:18.397Z,8.55
2023-01-03T03:55:54.787Z,8.18
2023-01-03T03:58:30.574Z,8.63
2023-01-03T04:00:58.702Z,8.15
2023-01-03T04:03:26.633Z,8.60
2023-01-03T04:05:58.941Z,8.55
2023-01-03T04:10:52.626Z,8.82
2023-01-03T04:13:19.330Z,8.93
2023-01-03T04:15:45.975Z,9.40
2023-01-03T04:18:12.876Z,8.57
2023-01-03T04:20:39.505Z,9.40
2023-01-03T04:23:06.144Z,8.65
2023-01-03T04:25:33.716Z,9.13
2023-01-03T04:28:00.407Z,9.30
2023-01-03T04:30:27.037Z,8.90
2023-01-03T04:32:53.768Z,9.02
2023-01-03T04:35:20.449Z,8.55
2023-01-03T04:37:47.133Z,9.88
2023-01-03T04:40:13.787Z,8.73
2023-01-03T04:42:58.830Z,9.48
2023-01-03T04:45:25.575Z,8.20
2023-01-03T04:47:53.389Z,8.23
2023-01-03T04:50:20.014Z,9.43
2023-01-03T04:52:46.642Z,8.80
2023-01-03T04:55:13.302Z,8.65
2023-01-03T04:57:40.009Z,9.88
2023-01-03T05:00:07.408Z,9.57
2023-01-03T05:02:34.161Z,9.27
2023-01-03T05:05:00.911Z,9.95
2023-01-03T05:07:28.646Z,10.43
2023-01-03T05:09:55.559Z,9.02
2023-01-03T05:12:22.207Z,9.98
2023-01-03T05:14:48.845Z,9.57
2023-01-03T05:17:15.674Z,9.85
2023-01-03T05:20:01.043Z,10.07
2023-01-03T05:22:46.241Z,9.13
2023-01-03T05:25:31.429Z,10.48
2023-01-03T05:27:58.655Z,8.68
2023-01-03T05:30:25.568Z,9.07
2023-01-03T05:32:52.325Z,10.95
2023-01-03T05:35:18.974Z,9.63
2023-01-03T05:37:45.710Z,9.50
2023-01-03T05:40:13.324Z,8.65
2023-01-03T05:42:40.163Z,9.48
2023-01-03T05:45:07.604Z,9.45
2023-01-03T05:47:34.563Z,9.23
2023-01-03T05:50:01.232Z,9.65
2023-01-03T05:52:27.921Z,10.98
2023-01-03T05:54:54.543Z,11.52
2023-01-03T05:57:21.245Z,12.25
2023-01-03T05:59:47.878Z,12.82
2023-01-03T06:02:14.797Z,11.82
2023-01-03T06:04:41.627Z,12.55
2023-01-03T06:07:08.315Z,12.63
2023-01-03T06:09:34.954Z,12.40
2023-01-03T06:12:01.605Z,12.80
2023-01-03T06:14:28.303Z,11.60
2023-01-03T06:17:13.845Z,12.18
2023-01-03T06:19:40.517Z,13.27
2023-01-03T06:22:10.720Z,12.48
2023-01-03T06:24:39.259Z,11.93
2023-01-03T06:27:05.937Z,12.80
2023-01-03T06:29:32.607Z,12.23
2023-01-03T06:32:03.589Z,12.50
2023-01-03T06:34:33.632Z,11.32
2023-01-03T06:37:00.437Z,11.63
2023-01-03T06:39:27.046Z,11.50
2023-01-03T06:41:53.689Z,11.10
2023-01-03T06:44:20.473Z,12.25
2023-01-03T06:47:05.513Z,13.27
2023-01-03T06:50:07.420Z,20.70
2023-01-03T06:52:52.558Z,20.13
2023-01-03T06:55:20.337Z,14.23
2023-01-03T06:57:46.946Z,12.75
2023-01-03T07:00:14.216Z,12.73
2023-01-03T07:02:41.117Z,12.35
2023-01-03T07:05:08.701Z,11.85
2023-01-03T07:07:35.338Z,12.95
2023-01-03T07:10:02.021Z,11.75
2023-01-03T07:12:47.243Z,11.82
2023-01-03T07:15:13.895Z,11.05
2023-01-03T07:17:40.513Z,11.55
2023-01-03T07:20:07.817Z,10.32
2023-01-03T07:22:34.469Z,10.02
2023-01-03T07:25:01.083Z,10.02
2023-01-03T07:27:27.733Z,10.10
2023-01-03T07:29:54.410Z,10.00
2023-01-03T07:32:21.122Z,11.50
2023-01-03T07:34:47.791Z,9.65
2023-01-03T07:37:14.432Z,9.95
2023-01-03T07:39:41.090Z,12.57
2023-01-03T07:42:26.815Z,18.58
2023-01-03T07:44:53.402Z,12.68
2023-01-03T07:47:20.108Z,16.10
2023-01-03T07:49:46.768Z,14.95
2023-01-03T07:52:13.389Z,12.80
2023-01-03T07:54:39.985Z,11.13
2023-01-03T07:57:06.805Z,15.25
2023-01-03T07:59:33.429Z,10.85
2023-01-03T08:02:01.205Z,11.35
2023-01-03T08:04:28.125Z,13.48
2023-01-03T08:06:54.833Z,13.00
2023-01-03T08:09:40.036Z,12.75
2023-01-03T08:12:26.819Z,12.65
2023-01-03T08:14:53.441Z,9.88
2023-01-03T08:17:20.081Z,10.80
2023-01-03T08:19:46.718Z,11.07
2023-01-03T08:22:13.400Z,10.48
2023-01-03T08:24:40.050Z,9.60
2023-01-03T08:27:06.721Z,11.02
2023-01-03T08:29:33.348Z,8.82
2023-01-03T08:32:02.751Z,8.73
2023-01-03T08:34:33.592Z,8.95
2023-01-03T08:37:03.979Z,9.20
2023-01-03T08:39:37.957Z,9.70
2023-01-03T08:42:07.622Z,9.15
2023-01-03T08:44:34.479Z,9.20
2023-01-03T08:47:06.900Z,10.10
2023-01-03T08:49:34.952Z,9.13
2023-01-03T08:52:01.734Z,9.75
2023-01-03T08:54:28.331Z,10.00
2023-01-03T08:56:55.630Z,8.80
2023-01-03T08:59:22.236Z,9.15
2023-01-03T09:01:49.028Z,8.27
2023-01-03T09:04:15.871Z,8.07
2023-01-03T09:06:42.603Z,7.90
2023-01-03T09:09:09.681Z,8.70
2023-01-03T09:11:36.360Z,8.27
2023-01-03T09:14:03.085Z,8.40
2023-01-03T09:16:29.858Z,14.95
2023-01-03T09:18:56.665Z,10.57
2023-01-03T09:21:23.543Z,8.13
2023-01-03T09:23:50.183Z,7.35
2023-01-03T09:26:16.848Z,8.68
2023-01-03T09:28:43.566Z,7.15
2023-01-03T09:31:10.417Z,7.85
2023-01-03T09:33:37.259Z,7.78
2023-01-03T09:36:04.242Z,7.22
2023-01-03T09:38:31.019Z,6.57
2023-01-03T09:41:05.852Z,7.50
2023-01-03T09:43:44.900Z,6.25
2023-01-03T09:46:25.618Z,6.25
2023-01-03T09:48:55.201Z,6.40
2023-01-03T09:51:43.138Z,5.63
2023-01-03T09:54:50.452Z,4.97
2023-01-03T09:57:42.360Z,4.82
2023-01-03T10:03:37.787Z,4.60
2023-01-03T10:06:47.336Z,4.25
2023-01-03T10:09:40.674Z,4.60
2023-01-03T10:12:15.972Z,4.38
2023-01-03T10:14:59.350Z,4.22
2023-01-03T10:17:35.712Z,4.10
2023-01-03T10:20:15.373Z,4.13
2023-01-03T10:22:42.496Z,3.67
2023-01-03T10:25:21.606Z,3.78
2023-01-03T10:27:51.917Z,3.83
2023-01-03T10:30:27.293Z,3.70
2023-01-03T10:33:25.633Z,3.70
2023-01-03T10:35:52.445Z,3.22
2023-01-03T10:38:20.323Z,3.75
2023-01-03T10:40:55.282Z,3.55
2023-01-03T10:43:38.988Z,3.55
2023-01-03T10:46:25.474Z,3.08
2023-01-03T10:49:28.832Z,3.20
2023-01-03T10:52:19.496Z,2.85
2023-01-03T10:54:48.961Z,3.33
2023-01-03T10:57:39.129Z,3.42
2023-01-03T11:00:35.720Z,3.00
2023-01-03T11:03:13.665Z,3.67
2023-01-03T11:05:42.651Z,3.42
2023-01-03T11:08:22.070Z,3.38
2023-01-03T11:10:52.086Z,3.70
2023-01-03T11:13:38.309Z,3.40
2023-01-03T11:16:15.021Z,3.08
2023-01-03T11:18:43.012Z,3.20
2023-01-03T11:21:23.601Z,3.55
2023-01-03T11:24:21.073Z,2.78
2023-01-03T11:27:06.729Z,3.00
2023-01-03T11:29:45.463Z,3.05
2023-01-03T11:32:36.851Z,3.08
2023-01-03T11:35:44.524Z,2.78
2023-01-03T11:38:25.888Z,2.42
2023-01-03T11:40:55.327Z,2.55
2023-01-03T11:43:21.981Z,2.22
2023-01-03T11:46:13.775Z,2.60
2023-01-03T11:48:53.241Z,2.60
2023-01-03T11:51:35.799Z,2.50
2023-01-03T11:54:22.726Z,3.40
2023-01-03T11:56:50.813Z,2.28
2023-01-03T11:59:51.657Z,2.20
2023-01-03T12:02:18.424Z,2.50
2023-01-03T12:04:59.686Z,2.05
2023-01-03T12:07:48.696Z,2.42
2023-01-03T12:10:29.880Z,1.90
2023-01-03T12:13:10.243Z,2.25
2023-01-03T12:15:50.811Z,2.05
2023-01-03T12:18:36.053Z,1.98
2023-01-03T12:21:10.452Z,1.60
2023-01-03T12:23:49.188Z,1.30
2023-01-03T12:26:17.200Z,1.40
2023-01-03T12:29:05.860Z,1.60
2023-01-03T12:32:22.148Z,1.13
2023-01-03T12:35:15.183Z,1.60
2023-01-03T12:37:46.182Z,1.90
2023-01-03T12:40:21.943Z,1.50
2023-01-03T12:42:59.686Z,1.38
2023-01-03T12:46:12.534Z,1.38
2023-01-03T12:48:53.683Z,1.55
2023-01-03T12:51:24.672Z,1.05
2023-01-03T12:54:04.474Z,1.00
2023-01-03T12:56:53.158Z,1.30
2023-01-03T12:59:22.520Z,1.55
2023-01-03T13:01:58.085Z,1.10
2023-01-03T13:04:30.431Z,1.15
2023-01-03T13:07:04.693Z,1.73
2023-01-03T13:09:38.554Z,1.25
2023-01-03T13:12:18.443Z,1.05
2023-01-03T13:15:03.812Z,0.65
2023-01-03T13:17:32.402Z,1.17
2023-01-03T13:20:24.890Z,1.10
2023-01-03T13:22:52.838Z,1.10
2023-01-03T13:25:39.764Z,1.00
2023-01-03T13:28:19.959Z,1.45
2023-01-03T13:30:47.433Z,1.13
2023-01-03T13:33:16.556Z,1.58
2023-01-03T13:35:43.160Z,0.85
2023-01-03T13:38:24.884Z,1.13
2023-01-03T13:43:50.052Z,1.00
2023-01-03T13:46:35.145Z,1.00
2023-01-03T13:49:07.670Z,1.10
2023-01-03T13:51:45.177Z,0.95
2023-01-03T13:54:11.802Z,1.55
2023-01-03T13:56:44.171Z,1.13
2023-01-03T13:59:26.452Z,1.30
2023-01-03T14:02:03.694Z,1.20
2023-01-03T14:04:58.423Z,1.55
2023-01-03T14:08:02.391Z,1.52
2023-01-03T14:11:00.126Z,1.40
2023-01-03T14:13:38.658Z,1.30
2023-01-03T14:16:18.864Z,1.80
2023-01-03T14:19:11.955Z,1.45
2023-01-03T14:21:46.560Z,1.83
2023-01-03T14:24:26.355Z,1.45
2023-01-03T14:26:54.047Z,1.38
2023-01-03T14:29:24.141Z,1.58
2023-01-03T14:31:55.590Z,1.73
2023-01-03T14:34:34.568Z,1.58
2023-01-03T14:37:06.703Z,1.40
2023-01-03T14:42:01.319Z,1.42
2023-01-03T14:44:30.948Z,1.20
2023-01-03T14:47:04.308Z,1.20
2023-01-03T14:49:44.491Z,1.45
2023-01-03T14:52:33.889Z,1.30
2023-01-03T14:55:16.795Z,1.30
2023-01-03T14:57:46.330Z,1.20
2023-01-03T15:00:30.033Z,1.92
2023-01-03T15:02:59.379Z,1.50
2023-01-03T15:05:35.317Z,1.65
2023-01-03T15:08:24.375Z,1.50
2023-01-03T15:11:08.992Z,1.90
2023-01-03T15:13:47.635Z,1.27
2023-01-03T15:16:37.591Z,1.77
2023-01-03T15:19:24.786Z,1.60
2023-01-03T15:22:05.040Z,1.60
2023-01-03T15:24:43.021Z,2.33
2023-01-03T15:27:46.915Z,6.82
2023-01-03T15:30:25.768Z,1.90
2023-01-03T15:33:00.492Z,1.70
2023-01-03T15:35:42.952Z,1.85
2023-01-03T15:38:20.398Z,1.98
2023-01-03T15:40:50.164Z,1.92
2023-01-03T15:43:19.362Z,2.17
2023-01-03T15:46:11.601Z,2.35
2023-01-03T15:48:38.657Z,2.22
2023-01-03T15:51:06.058Z,2.20
2023-01-03T15:53:40.982Z,8.68
2023-01-03T15:56:26.864Z,4.43
2023-01-03T15:58:55.709Z,3.17
2023-01-03T16:01:24.127Z,2.60
2023-01-03T16:03:51.924Z,2.97
2023-01-03T16:06:18.689Z,5.05
2023-01-03T16:08:46.223Z,5.60
2023-01-03T16:11:28.041Z,6.65
2023-01-03T16:14:02.048Z,8.57
2023-01-03T16:16:32.234Z,9.40
2023-01-03T16:18:59.260Z,6.65
2023-01-03T16:21:26.785Z,3.63
2023-01-03T16:23:53.551Z,3.05
2023-01-03T16:26:20.594Z,2.40
2023-01-03T16:28:48.147Z,2.95
2023-01-03T16:31:16.002Z,3.15
2023-01-03T16:33:43.561Z,2.78
2023-01-03T16:36:39.541Z,2.92
2023-01-03T16:39:20.686Z,2.72
2023-01-03T16:42:07.170Z,3.70
2023-01-03T16:44:35.578Z,3.30
2023-01-03T16:47:04.261Z,3.20
2023-01-03T16:49:34.015Z,3.10
2023-01-03T16:52:01.101Z,3.20
2023-01-03T16:54:27.815Z,2.40
2023-01-03T16:56:54.470Z,3.00
2023-01-03T16:59:22.917Z,2.47
2023-01-03T17:01:50.500Z,3.05
2023-01-03T17:04:17.558Z,2.83
2023-01-03T17:06:44.552Z,2.17
2023-01-03T17:09:27.767Z,2.53
2023-01-03T17:11:54.404Z,2.10
2023-01-03T17:14:22.541Z,4.07
2023-01-03T17:16:50.232Z,4.90
2023-01-03T17:22:21.726Z,3.35
2023-01-03T17:24:50.036Z,2.42
2023-01-03T17:27:31.124Z,2.58
2023-01-03T17:30:02.118Z,5.75
2023-01-03T17:32:30.320Z,2.75
2023-01-03T17:34:57.535Z,2.60
2023-01-03T17:37:24.675Z,2.67
2023-01-03T17:39:56.592Z,3.38
2023-01-03T17:42:25.509Z,2.45
2023-01-03T17:45:11.269Z,2.38
2023-01-03T17:47:59.123Z,2.63
2023-01-03T17:50:27.147Z,2.40
2023-01-03T17:52:56.301Z,2.83
2023-01-03T17:55:27.156Z,5.38
2023-01-03T17:57:55.584Z,2.28
2023-01-03T18:00:25.584Z,2.90
2023-01-03T18:02:54.164Z,2.47
2023-01-03T18:05:27.468Z,2.80
2023-01-03T18:07:56.981Z,2.53
2023-01-03T18:10:45.583Z,2.47
2023-01-03T18:13:19.105Z,2.60
2023-01-03T18:15:45.824Z,2.60
2023-01-03T18:18:20.162Z,2.60
2023-01-03T18:20:47.141Z,3.25
2023-01-03T18:23:35.979Z,3.58
2023-01-03T18:26:08.228Z,3.00
2023-01-03T18:28:34.991Z,2.30
2023-01-03T18:31:01.679Z,2.38
2023-01-03T18:33:28.378Z,2.60
2023-01-03T18:35:55.364Z,3.03
2023-01-03T18:38:28.379Z,2.42
2023-01-03T18:41:02.602Z,2.35
2023-01-03T18:43:31.949Z,2.83
2023-01-03T18:45:58.726Z,5.65
2023-01-03T18:48:25.454Z,3.58
2023-01-03T18:50:58.422Z,2.40
2023-01-03T18:53:29.080Z,3.60
2023-01-03T18:55:55.996Z,2.58
2023-01-03T18:58:34.064Z,2.55
2023-01-03T19:01:01.361Z,2.50
2023-01-03T19:03:30.568Z,2.72
2023-01-03T19:05:59.398Z,2.72
2023-01-03T19:08:30.357Z,2.70
2023-01-03T19:11:03.769Z,2.07
2023-01-03T19:13:49.724Z,2.80
2023-01-03T19:16:21.261Z,2.55
2023-01-03T19:18:48.201Z,2.55
2023-01-03T19:21:16.924Z,2.40
2023-01-03T19:23:46.233Z,2.45
2023-01-03T19:26:29.605Z,3.38
2023-01-03T19:29:00.057Z,2.10
2023-01-03T19:31:32.985Z,2.15
2023-01-03T19:33:59.760Z,2.30
2023-01-03T19:36:26.652Z,2.20
2023-01-03T19:38:53.296Z,2.33
2023-01-03T19:41:21.274Z,2.20
2023-01-03T19:43:49.407Z,2.85
2023-01-03T19:46:17.630Z,1.73
2023-01-03T19:48:44.798Z,2.13
2023-01-03T19:51:12.261Z,2.08
2023-01-03T19:53:39.472Z,1.98
2023-01-03T19:56:19.780Z,2.33
2023-01-03T19:58:46.691Z,2.20
2023-01-03T20:01:16.380Z,2.20
2023-01-03T20:03:44.173Z,2.17
2023-01-03T20:06:17.415Z,2.25
2023-01-03T20:08:44.273Z,2.17
2023-01-03T20:11:16.608Z,3.30
2023-01-03T20:13:43.765Z,4.38
2023-01-03T20:16:11.707Z,2.38
2023-01-03T20:18:40.661Z,2.47
2023-01-03T20:21:21.717Z,2.50
2023-01-03T20:23:53.445Z,1.85
2023-01-03T20:26:24.579Z,2.20
2023-01-03T20:28:55.429Z,2.17
2023-01-03T20:31:22.600Z,2.13
2023-01-03T20:33:49.993Z,1.83
2023-01-03T20:36:24.122Z,1.92
2023-01-03T20:38:55.521Z,2.00
2023-01-03T20:41:35.616Z,1.85
2023-01-03T20:44:03.334Z,1.90
2023-01-03T20:46:30.736Z,2.00
2023-01-03T20:49:01.158Z,2.25
2023-01-03T20:51:29.136Z,1.98
2023-01-03T20:53:55.830Z,1.92
2023-01-03T20:56:22.998Z,2.53
2023-01-03T20:58:49.731Z,1.90
2023-01-03T21:01:16.484Z,1.88
2023-01-03T21:03:43.369Z,1.73
2023-01-03T21:06:17.657Z,1.88
2023-01-03T21:08:53.990Z,1.95
2023-01-03T21:11:22.935Z,2.25
2023-01-03T21:13:49.867Z,2.15
2023-01-03T21:16:19.883Z,2.03
2023-01-03T21:18:46.694Z,1.60
2023-01-03T21:21:19.958Z,2.22
2023-01-03T21:23:47.456Z,2.03
2023-01-03T21:26:14.212Z,2.15
2023-01-03T21:28:41.078Z,1.67
2023-01-03T21:31:10.331Z,1.50
2023-01-03T21:33:37.051Z,1.70
2023-01-03T21:36:03.970Z,3.55
2023-01-03T21:38:30.621Z,1.60
2023-01-03T21:40:57.297Z,1.85
2023-01-03T21:43:24.151Z,1.73
2023-01-03T21:45:54.682Z,1.60
2023-01-03T21:48:21.521Z,1.90
2023-01-03T21:50:51.588Z,1.50
2023-01-03T21:53:21.161Z,1.58
2023-01-03T21:55:49.519Z,1.60
2023-01-03T21:58:18.255Z,1.92
2023-01-03T22:00:45.400Z,1.60
2023-01-03T22:03:35.818Z,1.67
2023-01-03T22:06:06.008Z,1.63
2023-01-03T22:08:32.690Z,1.42
2023-01-03T22:10:59.342Z,1.45
2023-01-03T22:13:26.121Z,1.60
2023-01-03T22:15:52.986Z,1.90
2023-01-03T22:18:19.669Z,1.40
2023-01-03T22:20:46.365Z,1.70
2023-01-03T22:23:13.973Z,1.40
2023-01-03T22:25:40.709Z,2.55
2023-01-03T22:28:07.363Z,2.17
2023-01-03T22:30:34.149Z,1.63
2023-01-03T22:33:00.806Z,1.83
2023-01-03T22:35:27.725Z,1.55
2023-01-03T22:37:56.532Z,1.83
2023-01-03T22:40:23.757Z,2.00
2023-01-03T22:42:51.135Z,1.73
2023-01-03T22:45:17.994Z,2.25
2023-01-03T22:47:44.759Z,1.42
2023-01-03T22:50:11.826Z,1.60
2023-01-03T22:52:40.040Z,2.03
2023-01-03T22:55:08.566Z,1.83
2023-01-03T22:57:35.768Z,2.03
2023-01-03T23:00:03.230Z,2.08
2023-01-03T23:02:40.897Z,1.50
2023-01-03T23:05:08.575Z,1.60
2023-01-03T23:07:35.289Z,1.50
2023-01-03T23:10:02.029Z,1.60
2023-01-03T23:12:47.353Z,1.73
2023-01-03T23:15:14.104Z,1.60
2023-01-03T23:17:56.546Z,2.03
2023-01-03T23:20:48.584Z,1.52
2023-01-03T23:25:41.881Z,1.33
2023-01-03T23:28:08.788Z,1.50
2023-01-03T23:30:35.765Z,2.10
2023-01-03T23:33:02.571Z,1.40
2023-01-03T23:35:29.223Z,1.70
2023-01-03T23:37:57.696Z,1.27
2023-01-03T23:40:24.372Z,1.50
2023-01-03T23:42:51.093Z,1.55
2023-01-03T23:45:17.844Z,2.50
2023-01-03T23:47:44.663Z,1.75
2023-01-03T23:50:11.580Z,1.80
2023-01-03T23:52:38.306Z,1.60
2023-01-03T23:55:12.106Z,1.67
2023-01-03T23:57:39.938Z,1.33
